createdAt,value
2018-01-15T00:01:52.302Z,81.08
2018-01-15T00:04:19.834Z,81.31
2018-01-15T00:06:47.371Z,81.35
2018-01-15T00:09:14.922Z,81.86
2018-01-15T00:11:42.457Z,81.78
2018-01-15T00:14:10.042Z,81.91
2018-01-15T00:16:37.642Z,81.64
2018-01-15T00:19:05.278Z,82.08
2018-01-15T00:21:32.878Z,82.32
2018-01-15T00:24:00.483Z,82.11
2018-01-15T00:26:28.074Z,82.10
2018-01-15T00:28:55.607Z,82.57
2018-01-15T00:31:23.141Z,82.96
2018-01-15T00:33:50.682Z,83.07
2018-01-15T00:36:18.217Z,83.53
2018-01-15T00:38:45.821Z,83.13
2018-01-15T00:41:13.419Z,83.46
2018-01-15T00:43:40.950Z,83.37
2018-01-15T00:46:08.550Z,84.04
2018-01-15T00:48:36.093Z,84.46
2018-01-15T00:51:03.731Z,84.50
2018-01-15T00:53:31.330Z,84.56
2018-01-15T00:55:58.925Z,84.78
2018-01-15T00:58:26.530Z,84.61
2018-01-15T01:00:54.126Z,84.23
2018-01-15T01:03:21.714Z,84.40
2018-01-15T01:05:49.261Z,84.58
2018-01-15T01:08:16.861Z,84.97
2018-01-15T01:10:44.446Z,84.79
2018-01-15T01:13:12.039Z,85.34
2018-01-15T01:15:39.630Z,85.44
2018-01-15T01:18:07.169Z,85.60
2018-01-15T01:20:34.729Z,85.39
2018-01-15T01:23:02.285Z,85.26
2018-01-15T01:25:29.886Z,85.22
2018-01-15T01:27:57.482Z,84.82
2018-01-15T01:30:25.085Z,84.90
2018-01-15T01:32:52.658Z,84.68
2018-01-15T01:35:20.210Z,84.61
2018-01-15T01:37:47.806Z,84.74
2018-01-15T01:40:15.451Z,84.63
2018-01-15T01:42:43.021Z,84.73
2018-01-15T01:45:10.565Z,84.70
2018-01-15T01:47:38.113Z,84.81
2018-01-15T01:50:05.654Z,84.69
2018-01-15T01:52:33.316Z,84.75
2018-01-15T01:55:00.866Z,84.76
2018-01-15T01:57:28.406Z,84.71
2018-01-15T01:59:55.949Z,85.00
2018-01-15T02:02:23.485Z,85.20
2018-01-15T02:04:51.126Z,85.14
2018-01-15T02:07:18.661Z,85.42
2018-01-15T02:09:46.271Z,85.76
2018-01-15T02:12:13.822Z,85.74
2018-01-15T02:14:41.365Z,85.67
2018-01-15T02:17:08.951Z,85.55
2018-01-15T02:19:36.570Z,85.54
2018-01-15T02:22:04.118Z,85.79
2018-01-15T02:24:31.742Z,85.72
2018-01-15T02:26:59.289Z,85.47
2018-01-15T02:29:26.963Z,85.55
2018-01-15T02:31:54.523Z,85.77
2018-01-15T02:34:22.070Z,85.83
2018-01-15T02:36:49.622Z,85.85
2018-01-15T02:39:17.163Z,85.83
2018-01-15T02:41:44.747Z,85.84
2018-01-15T02:44:12.291Z,85.59
2018-01-15T02:46:39.897Z,85.61
2018-01-15T02:49:07.498Z,85.64
2018-01-15T02:51:35.037Z,85.60
2018-01-15T02:54:02.621Z,85.57
2018-01-15T02:56:30.168Z,85.36
2018-01-15T02:58:57.767Z,85.42
2018-01-15T03:01:25.314Z,85.46
2018-01-15T03:03:52.858Z,85.45
2018-01-15T03:06:20.456Z,85.41
2018-01-15T03:08:48.006Z,85.58
2018-01-15T03:11:15.551Z,85.61
2018-01-15T03:13:43.167Z,85.49
2018-01-15T03:16:10.708Z,85.58
2018-01-15T03:18:38.299Z,85.42
2018-01-15T03:21:05.837Z,85.34
2018-01-15T03:23:33.377Z,85.41
2018-01-15T03:26:00.986Z,85.22
2018-01-15T03:28:28.534Z,85.02
2018-01-15T03:30:56.187Z,84.98
2018-01-15T03:33:23.725Z,84.86
2018-01-15T03:35:51.326Z,84.91
2018-01-15T03:38:18.939Z,85.03
2018-01-15T03:40:46.533Z,84.94
2018-01-15T03:43:14.182Z,85.07
2018-01-15T03:45:41.721Z,84.97
2018-01-15T03:48:09.318Z,84.91
2018-01-15T03:50:36.926Z,85.06
2018-01-15T03:53:04.465Z,85.31
2018-01-15T03:55:32.058Z,85.44
2018-01-15T03:57:59.598Z,85.27
2018-01-15T04:00:27.142Z,85.30
2018-01-15T04:02:54.685Z,85.19
2018-01-15T04:05:22.286Z,84.96
2018-01-15T04:07:49.962Z,84.78
2018-01-15T04:10:17.501Z,84.55
2018-01-15T04:12:45.102Z,84.59
2018-01-15T04:15:12.645Z,84.71
2018-01-15T04:17:40.186Z,85.21
2018-01-15T04:20:07.797Z,85.18
2018-01-15T04:22:35.398Z,85.11
2018-01-15T04:25:02.999Z,84.89
2018-01-15T04:27:30.519Z,84.35
2018-01-15T04:29:58.115Z,84.68
2018-01-15T04:32:25.759Z,84.72
2018-01-15T04:34:53.298Z,84.50
2018-01-15T04:37:20.894Z,84.52
2018-01-15T04:39:48.503Z,84.67
2018-01-15T04:42:16.046Z,84.40
2018-01-15T04:44:43.649Z,84.37
2018-01-15T04:47:11.190Z,84.80
2018-01-15T04:49:38.730Z,84.78
2018-01-15T04:52:06.340Z,84.28
2018-01-15T04:54:33.934Z,84.38
2018-01-15T04:57:01.575Z,84.30
2018-01-15T04:59:29.121Z,83.97
2018-01-15T05:01:56.672Z,84.37
2018-01-15T05:04:24.286Z,84.69
2018-01-15T05:06:51.825Z,84.49
2018-01-15T05:09:19.467Z,83.92
2018-01-15T05:11:47.045Z,83.81
2018-01-15T05:14:14.638Z,84.03
2018-01-15T05:16:42.242Z,83.86
2018-01-15T05:19:09.773Z,83.51
2018-01-15T05:21:37.422Z,83.26
2018-01-15T05:24:04.961Z,83.19
2018-01-15T05:26:32.570Z,83.05
2018-01-15T05:29:00.114Z,82.51
2018-01-15T05:31:27.649Z,82.44
2018-01-15T05:33:55.298Z,82.35
2018-01-15T05:36:22.838Z,82.22
2018-01-15T05:38:50.379Z,82.11
2018-01-15T05:41:17.925Z,82.21
2018-01-15T05:43:45.522Z,82.00
2018-01-15T05:46:13.102Z,81.85
2018-01-15T05:48:40.639Z,81.58
2018-01-15T05:51:08.185Z,81.65
2018-01-15T05:53:35.736Z,81.65
2018-01-15T05:56:03.277Z,82.23
2018-01-15T05:58:30.857Z,82.34
2018-01-15T06:00:58.393Z,82.37
2018-01-15T06:03:26.002Z,82.24
2018-01-15T06:05:53.606Z,82.04
2018-01-15T06:08:21.145Z,82.02
2018-01-15T06:10:48.734Z,82.09
2018-01-15T06:13:16.316Z,81.95
2018-01-15T06:15:43.853Z,81.64
2018-01-15T06:18:11.398Z,81.78
2018-01-15T06:20:38.942Z,81.90
2018-01-15T06:23:06.538Z,81.96
2018-01-15T06:25:34.086Z,82.16
2018-01-15T06:28:01.622Z,82.55
2018-01-15T06:30:29.235Z,82.49
2018-01-15T06:32:56.830Z,82.11
2018-01-15T06:35:24.443Z,82.47
2018-01-15T06:37:52.038Z,82.28
2018-01-15T06:40:19.573Z,82.52
2018-01-15T06:42:47.118Z,83.08
2018-01-15T06:45:14.654Z,82.64
2018-01-15T06:47:42.326Z,82.40
2018-01-15T06:50:09.865Z,82.23
2018-01-15T06:52:37.406Z,82.11
2018-01-15T06:55:04.958Z,81.70
2018-01-15T06:57:32.493Z,81.53
2018-01-15T07:00:00.091Z,81.49
2018-01-15T07:02:27.633Z,81.31
2018-01-15T07:04:55.175Z,80.68
2018-01-15T07:07:22.782Z,81.23
2018-01-15T07:09:50.326Z,80.53
2018-01-15T07:12:17.942Z,80.69
2018-01-15T07:14:45.482Z,81.24
2018-01-15T07:17:13.044Z,81.54
2018-01-15T07:19:40.585Z,81.23
2018-01-15T07:22:08.121Z,81.63
2018-01-15T07:24:35.738Z,81.88
2018-01-15T07:27:03.273Z,82.47
2018-01-15T07:29:30.876Z,81.44
2018-01-15T07:31:58.478Z,80.91
2018-01-15T07:34:25.990Z,80.36
2018-01-15T07:36:53.569Z,80.39
2018-01-15T07:39:21.103Z,80.03
2018-01-15T07:41:48.642Z,79.58
2018-01-15T07:44:16.198Z,79.52
2018-01-15T07:46:43.794Z,78.74
2018-01-15T07:49:11.385Z,78.72
2018-01-15T07:51:38.982Z,79.41
2018-01-15T07:54:06.529Z,79.90
2018-01-15T07:56:34.078Z,80.19
2018-01-15T07:59:01.622Z,80.08
2018-01-15T08:01:29.201Z,79.91
2018-01-15T08:03:56.745Z,78.91
2018-01-15T08:06:24.285Z,78.35
2018-01-15T08:08:51.830Z,77.68
2018-01-15T08:11:19.365Z,75.70
2018-01-15T08:13:47.034Z,75.13
2018-01-15T08:16:14.578Z,74.61
2018-01-15T08:18:42.178Z,76.08
2018-01-15T08:21:09.722Z,75.22
2018-01-15T08:23:37.266Z,75.50
2018-01-15T08:26:05.565Z,75.61
2018-01-15T08:28:33.106Z,77.01
2018-01-15T08:31:00.703Z,76.44
2018-01-15T08:33:28.250Z,76.16
2018-01-15T08:35:55.900Z,75.80
2018-01-15T08:38:23.486Z,75.57
2018-01-15T08:40:51.022Z,75.64
2018-01-15T08:43:18.630Z,75.81
2018-01-15T08:45:46.182Z,75.90
2018-01-15T08:48:13.722Z,75.51
2018-01-15T08:50:41.334Z,75.11
2018-01-15T08:53:08.869Z,75.38
2018-01-15T08:55:36.466Z,75.97
2018-01-15T08:58:04.010Z,75.61
2018-01-15T09:00:31.549Z,75.45
2018-01-15T09:02:59.134Z,74.91
2018-01-15T09:05:26.730Z,74.73
2018-01-15T09:07:54.388Z,75.37
2018-01-15T09:10:21.936Z,76.25
2018-01-15T09:12:49.481Z,76.32
2018-01-15T09:15:17.122Z,74.98
2018-01-15T09:17:44.727Z,75.38
2018-01-15T09:20:12.331Z,76.24
2018-01-15T09:22:39.927Z,76.22
2018-01-15T09:25:07.507Z,76.04
2018-01-15T09:27:35.086Z,75.88
2018-01-15T09:30:02.630Z,75.45
2018-01-15T09:32:30.169Z,76.17
2018-01-15T09:34:57.720Z,75.90
2018-01-15T09:37:25.318Z,75.10
2018-01-15T09:39:52.905Z,75.10
2018-01-15T09:42:20.445Z,74.92
2018-01-15T09:44:47.988Z,74.55
2018-01-15T09:47:15.562Z,73.98
2018-01-15T09:49:43.102Z,74.74
2018-01-15T09:52:10.686Z,74.14
2018-01-15T09:54:38.282Z,73.91
2018-01-15T09:57:05.826Z,73.85
2018-01-15T09:59:33.378Z,74.84
2018-01-15T10:02:00.983Z,74.12
2018-01-15T10:04:28.570Z,74.81
2018-01-15T10:06:56.111Z,74.23
2018-01-15T10:09:23.650Z,73.54
2018-01-15T10:11:51.254Z,73.89
2018-01-15T10:14:18.794Z,72.78
2018-01-15T10:16:46.383Z,72.70
2018-01-15T10:19:13.983Z,71.85
2018-01-15T10:21:41.582Z,71.33
2018-01-15T10:24:09.185Z,71.44
2018-01-15T10:26:37.550Z,71.30
2018-01-15T10:29:05.165Z,71.54
2018-01-15T10:31:32.763Z,72.21
2018-01-15T10:34:00.306Z,72.07
2018-01-15T10:36:27.914Z,72.17
2018-01-15T10:38:55.526Z,72.28
2018-01-15T10:41:23.198Z,72.72
2018-01-15T10:43:50.742Z,72.62
2018-01-15T10:46:18.277Z,73.52
2018-01-15T10:48:45.827Z,72.61
2018-01-15T10:51:13.424Z,72.54
2018-01-15T10:53:41.086Z,72.65
2018-01-15T10:56:08.637Z,73.71
2018-01-15T10:58:37.047Z,73.42
2018-01-15T11:01:10.262Z,74.07
2018-01-15T11:03:37.814Z,73.57
2018-01-15T11:06:05.417Z,73.58
2018-01-15T11:08:32.961Z,74.26
2018-01-15T11:11:00.502Z,73.98
2018-01-15T11:13:28.052Z,73.66
2018-01-15T11:15:55.677Z,72.52
2018-01-15T11:18:23.385Z,73.57
2018-01-15T11:20:50.845Z,73.43
2018-01-15T11:23:18.390Z,73.48
2018-01-15T11:25:45.941Z,73.24
2018-01-15T11:28:13.497Z,74.51
2018-01-15T11:30:41.154Z,74.01
2018-01-15T11:33:08.763Z,73.76
2018-01-15T11:35:36.306Z,72.89
2018-01-15T11:38:03.919Z,72.38
2018-01-15T11:40:31.464Z,72.08
2018-01-15T11:42:59.054Z,72.17
2018-01-15T11:45:26.594Z,72.09
2018-01-15T11:47:54.199Z,72.91
2018-01-15T11:50:21.764Z,72.01
2018-01-15T11:52:49.316Z,71.99
2018-01-15T11:55:16.918Z,71.40
2018-01-15T11:57:44.462Z,71.08
2018-01-15T12:00:12.003Z,71.71
2018-01-15T12:02:39.557Z,71.86
2018-01-15T12:05:07.159Z,70.74
2018-01-15T12:07:34.742Z,71.18
2018-01-15T12:10:02.285Z,71.92
2018-01-15T12:12:29.887Z,73.26
2018-01-15T12:14:57.493Z,73.30
2018-01-15T12:17:25.034Z,72.87
2018-01-15T12:19:52.627Z,72.69
2018-01-15T12:22:20.170Z,73.72
2018-01-15T12:24:47.711Z,74.05
2018-01-15T12:27:15.320Z,74.89
2018-01-15T12:29:42.854Z,75.22
2018-01-15T12:32:10.445Z,75.38
2018-01-15T12:34:38.074Z,74.54
2018-01-15T12:37:05.614Z,74.29
2018-01-15T12:39:33.162Z,74.80
2018-01-15T12:42:00.759Z,74.65
2018-01-15T12:44:28.345Z,74.44
2018-01-15T12:46:55.883Z,75.38
2018-01-15T12:49:23.422Z,75.79
2018-01-15T12:51:50.977Z,74.87
2018-01-15T12:54:18.514Z,74.91
2018-01-15T12:56:46.098Z,75.00
2018-01-15T12:59:13.637Z,74.95
2018-01-15T13:01:41.234Z,75.48
2018-01-15T13:04:08.838Z,75.50
2018-01-15T13:07:01.070Z,75.48
2018-01-15T13:09:28.682Z,75.68
2018-01-15T13:11:56.278Z,74.67
2018-01-15T13:14:23.830Z,75.04
2018-01-15T13:16:51.430Z,74.86
2018-01-15T13:19:19.102Z,74.03
2018-01-15T13:21:46.642Z,74.44
2018-01-15T13:24:14.215Z,73.88
2018-01-15T13:26:41.762Z,73.57
2018-01-15T13:29:09.310Z,73.22
2018-01-15T13:31:36.954Z,72.60
2018-01-15T13:34:04.554Z,72.86
2018-01-15T13:36:32.162Z,73.26
2018-01-15T13:38:59.710Z,72.95
2018-01-15T13:41:27.310Z,73.53
2018-01-15T13:43:54.894Z,73.75
2018-01-15T13:46:22.498Z,74.51
2018-01-15T13:48:50.038Z,74.52
2018-01-15T13:51:17.582Z,74.15
2018-01-15T13:53:45.121Z,74.42
2018-01-15T13:56:12.725Z,73.96
2018-01-15T13:58:40.262Z,74.91
2018-01-15T14:01:07.802Z,75.15
2018-01-15T14:03:35.357Z,75.59
2018-01-15T14:06:02.959Z,75.34
2018-01-15T14:08:30.630Z,75.00
2018-01-15T14:10:58.232Z,74.99
2018-01-15T14:13:25.830Z,74.75
2018-01-15T14:15:53.434Z,75.16
2018-01-15T14:18:20.969Z,74.44
2018-01-15T14:20:48.558Z,74.46
2018-01-15T14:23:16.101Z,74.01
2018-01-15T14:25:43.654Z,74.45
2018-01-15T14:28:11.202Z,73.78
2018-01-15T14:30:38.783Z,74.74
2018-01-15T14:33:06.417Z,75.17
2018-01-15T14:35:33.954Z,75.39
2018-01-15T14:38:01.494Z,75.01
2018-01-15T14:40:29.038Z,75.42
2018-01-15T14:42:56.629Z,75.35
2018-01-15T14:45:24.218Z,75.20
2018-01-15T14:47:51.822Z,75.52
2018-01-15T14:50:19.362Z,75.33
2018-01-15T14:52:46.970Z,75.67
2018-01-15T14:55:14.574Z,75.92
2018-01-15T14:57:42.240Z,76.55
2018-01-15T15:00:09.782Z,76.66
2018-01-15T15:02:37.321Z,76.70
2018-01-15T15:05:04.872Z,77.22
2018-01-15T15:07:32.422Z,77.47
2018-01-15T15:10:00.016Z,78.42
2018-01-15T15:12:27.623Z,78.29
2018-01-15T15:14:55.276Z,78.27
2018-01-15T15:17:22.834Z,78.58
2018-01-15T15:19:50.384Z,78.01
2018-01-15T15:22:18.071Z,78.67
2018-01-15T15:24:45.605Z,78.62
2018-01-15T15:27:13.142Z,78.73
2018-01-15T15:29:40.694Z,78.95
2018-01-15T15:32:08.233Z,78.61
2018-01-15T15:34:35.877Z,78.88
2018-01-15T15:37:03.409Z,78.94
2018-01-15T15:39:31.006Z,79.44
2018-01-15T15:41:58.614Z,79.83
2018-01-15T15:44:26.158Z,79.90
2018-01-15T15:46:53.770Z,80.29
2018-01-15T15:49:21.305Z,80.77
2018-01-15T15:51:48.846Z,80.67
2018-01-15T15:54:16.450Z,80.85
2018-01-15T15:56:43.986Z,80.95
2018-01-15T15:59:11.574Z,81.39
2018-01-15T16:01:39.105Z,81.58
2018-01-15T16:04:06.646Z,81.86
2018-01-15T16:06:34.251Z,81.97
2018-01-15T16:09:01.785Z,81.97
2018-01-15T16:11:29.394Z,81.68
2018-01-15T16:13:57.001Z,81.66
2018-01-15T16:16:24.585Z,81.45
2018-01-15T16:18:52.193Z,81.68
2018-01-15T16:21:19.790Z,81.72
2018-01-15T16:23:47.419Z,81.96
2018-01-15T16:26:15.014Z,82.30
2018-01-15T16:28:42.555Z,82.29
2018-01-15T16:31:10.162Z,82.12
2018-01-15T16:33:37.705Z,81.96
2018-01-15T16:36:05.347Z,82.29
2018-01-15T16:38:32.890Z,82.30
2018-01-15T16:41:00.433Z,81.92
2018-01-15T16:43:28.042Z,82.01
2018-01-15T16:45:55.661Z,82.06
2018-01-15T16:48:23.338Z,81.61
2018-01-15T16:50:50.880Z,81.81
2018-01-15T16:53:18.478Z,81.59
2018-01-15T16:55:46.026Z,81.42
2018-01-15T16:58:13.568Z,81.43
2018-01-15T17:00:41.247Z,82.20
2018-01-15T17:03:08.787Z,81.89
2018-01-15T17:05:36.391Z,81.99
2018-01-15T17:08:03.941Z,82.14
2018-01-15T17:10:31.483Z,82.53
2018-01-15T17:12:59.129Z,82.40
2018-01-15T17:15:26.670Z,82.24
2018-01-15T17:17:54.269Z,81.73
2018-01-15T17:20:21.870Z,81.45
2018-01-15T17:22:49.410Z,82.27
2018-01-15T17:25:17.050Z,81.83
2018-01-15T17:27:44.706Z,81.41
2018-01-15T17:30:12.308Z,80.45
2018-01-15T17:32:39.914Z,80.87
2018-01-15T17:35:07.514Z,81.19
2018-01-15T17:37:35.126Z,81.28
2018-01-15T17:40:02.723Z,81.29
2018-01-15T17:42:30.279Z,81.07
2018-01-15T17:44:57.837Z,81.02
2018-01-15T17:47:25.507Z,80.77
2018-01-15T17:49:53.097Z,80.75
2018-01-15T17:52:20.637Z,80.85
2018-01-15T17:54:48.177Z,81.01
2018-01-15T17:57:15.787Z,81.09
2018-01-15T17:59:43.333Z,80.85
2018-01-15T18:02:10.914Z,80.81
2018-01-15T18:04:38.450Z,80.92
2018-01-15T18:07:05.990Z,81.04
2018-01-15T18:09:33.602Z,81.15
2018-01-15T18:12:01.206Z,81.25
2018-01-15T18:14:28.886Z,81.05
2018-01-15T18:16:56.481Z,81.15
2018-01-15T18:19:24.082Z,80.98
2018-01-15T18:21:51.697Z,80.96
2018-01-15T18:24:19.242Z,81.01
2018-01-15T18:26:46.903Z,80.55
2018-01-15T18:29:14.502Z,80.64
2018-01-15T18:31:42.050Z,80.33
2018-01-15T18:34:09.598Z,80.30
2018-01-15T18:36:37.139Z,80.05
2018-01-15T18:39:04.797Z,80.23
2018-01-15T18:41:32.406Z,79.93
2018-01-15T18:43:59.942Z,80.06
2018-01-15T18:46:27.489Z,80.23
2018-01-15T18:48:55.030Z,79.81
2018-01-15T18:51:22.669Z,79.74
2018-01-15T18:53:50.212Z,79.86
2018-01-15T18:56:17.753Z,80.08
2018-01-15T18:58:45.306Z,79.48
2018-01-15T19:01:12.846Z,79.08
2018-01-15T19:03:40.450Z,79.06
2018-01-15T19:06:08.001Z,78.85
2018-01-15T19:08:35.545Z,79.35
2018-01-15T19:11:03.098Z,79.36
2018-01-15T19:13:30.642Z,79.31
2018-01-15T19:15:58.253Z,78.95
2018-01-15T19:18:25.850Z,79.01
2018-01-15T19:20:53.453Z,78.91
2018-01-15T19:23:21.006Z,78.97
2018-01-15T19:25:48.543Z,79.05
2018-01-15T19:28:16.178Z,79.31
2018-01-15T19:30:43.754Z,78.85
2018-01-15T19:33:11.333Z,78.41
2018-01-15T19:35:44.354Z,78.77
2018-01-15T19:38:13.398Z,79.00
2018-01-15T19:40:41.050Z,78.99
2018-01-15T19:46:18.214Z,78.61
2018-01-15T19:48:51.302Z,79.05
2018-01-15T19:51:24.598Z,79.19
2018-01-15T19:53:57.808Z,79.61
2018-01-15T19:56:30.817Z,79.75
2018-01-15T19:59:03.943Z,79.81
2018-01-15T20:01:37.226Z,79.72
2018-01-15T20:04:10.350Z,80.17
2018-01-15T20:06:43.671Z,80.32
2018-01-15T20:09:16.753Z,80.24
2018-01-15T20:11:44.455Z,80.33
2018-01-15T20:14:12.046Z,80.44
2018-01-15T20:16:39.582Z,81.27
2018-01-15T20:19:07.138Z,81.28
2018-01-15T20:21:34.722Z,81.31
2018-01-15T20:24:02.307Z,81.42
2018-01-15T20:26:29.851Z,81.63
2018-01-15T20:28:57.403Z,81.61
2018-01-15T20:31:24.958Z,81.85
2018-01-15T20:33:52.557Z,81.75
2018-01-15T20:36:20.138Z,81.89
2018-01-15T20:38:47.735Z,82.28
2018-01-15T20:41:15.273Z,82.22
2018-01-15T20:43:42.893Z,82.34
2018-01-15T20:46:10.435Z,82.42
2018-01-15T20:48:38.086Z,82.75
2018-01-15T20:51:05.686Z,83.26
2018-01-15T20:53:33.225Z,83.59
2018-01-15T20:56:00.774Z,83.61
2018-01-15T20:58:28.371Z,83.30
2018-01-15T21:00:55.986Z,83.20
2018-01-15T21:03:23.530Z,82.66
2018-01-15T21:05:51.070Z,83.12
2018-01-15T21:08:18.675Z,83.14
2018-01-15T21:10:46.215Z,83.04
2018-01-15T21:13:13.795Z,83.25
2018-01-15T21:15:41.334Z,83.14
2018-01-15T21:18:08.878Z,83.16
2018-01-15T21:20:36.494Z,83.21
2018-01-15T21:23:04.123Z,82.98
2018-01-15T21:25:31.708Z,82.87
2018-01-15T21:27:59.307Z,82.83
2018-01-15T21:30:26.862Z,82.87
2018-01-15T21:32:54.418Z,82.73
2018-01-15T21:35:21.955Z,82.49
2018-01-15T21:37:49.630Z,82.84
2018-01-15T21:40:17.286Z,83.10
2018-01-15T21:42:44.895Z,83.19
2018-01-15T21:45:12.443Z,82.99
2018-01-15T21:47:39.989Z,83.22
2018-01-15T21:50:07.601Z,83.22
2018-01-15T21:52:35.211Z,83.71
2018-01-15T21:55:02.750Z,83.56
2018-01-15T21:57:30.354Z,83.67
2018-01-15T21:59:57.898Z,83.17
2018-01-15T22:02:25.571Z,82.88
2018-01-15T22:04:53.118Z,83.23
2018-01-15T22:07:20.662Z,82.82
2018-01-15T22:09:48.320Z,82.77
2018-01-15T22:12:15.910Z,83.12
2018-01-15T22:14:43.523Z,83.18
2018-01-15T22:17:11.061Z,83.05
2018-01-15T22:19:38.602Z,83.21
2018-01-15T22:22:06.216Z,83.18
2018-01-15T22:24:33.762Z,83.38
2018-01-15T22:27:01.370Z,83.43
2018-01-15T22:29:28.909Z,83.77
2018-01-15T22:31:56.506Z,84.20
2018-01-15T22:34:24.115Z,84.32
2018-01-15T22:36:51.758Z,84.25
2018-01-15T22:39:19.334Z,83.87
2018-01-15T22:41:46.874Z,83.47
2018-01-15T22:44:14.413Z,83.46
2018-01-15T22:46:41.966Z,83.40
2018-01-15T22:49:09.511Z,83.39
2018-01-15T22:51:37.094Z,83.32
2018-01-15T22:54:04.699Z,83.37
2018-01-15T22:56:32.259Z,83.23
2018-01-15T22:58:59.874Z,83.21
2018-01-15T23:01:27.414Z,82.86
2018-01-15T23:03:55.063Z,82.61
2018-01-15T23:06:22.607Z,82.40
2018-01-15T23:08:50.154Z,82.16
2018-01-15T23:11:17.714Z,82.14
2018-01-15T23:13:45.266Z,82.29
2018-01-15T23:16:12.939Z,82.01
2018-01-15T23:18:40.539Z,81.79
2018-01-15T23:21:08.077Z,81.89
2018-01-15T23:23:35.629Z,81.64
2018-01-15T23:26:03.235Z,81.81
2018-01-15T23:28:30.846Z,81.81
2018-01-15T23:30:58.446Z,81.70
2018-01-15T23:33:26.047Z,81.75
2018-01-15T23:35:53.599Z,81.75
2018-01-15T23:38:21.145Z,81.13
2018-01-15T23:40:48.738Z,81.30
2018-01-15T23:43:16.318Z,81.16
2018-01-15T23:45:43.961Z,81.65
2018-01-15T23:48:11.501Z,81.75
2018-01-15T23:50:39.150Z,82.29
2018-01-15T23:53:06.734Z,82.58
2018-01-15T23:55:34.386Z,82.37
2018-01-15T23:58:01.982Z,82.85
